Time;durP1;ratioP1;P1;durP2;ratioP2;P2;SDS_P1;SDS_P2;PMS_P1;PMS_P2;Temp;Humidity;BMP_temperature;BMP_pressure;BME280_temperature;BME280_humidity;BME280_pressure;Samples;Min_cycle;Max_cycle;Signal;HPM_P1;HPM_P2
2023/10/16 00:01:09;;;;;;;;;;;;;;;7.46;59.87;98625.72;4978324;28;19922;-62
2023/10/16 00:03:39;;;;;;;;;;;;;;;7.40;60.42;98617.88;4976655;28;20393;-62
2023/10/16 00:06:06;;;;;;;;;;;;;;;7.35;60.22;98627.63;4972514;28;19921;-62
2023/10/16 00:08:35;;;;;;;;;;;;;;;7.29;60.28;98627.88;4978379;28;19922;-62
2023/10/16 00:11:04;;;;;;;;;;;;;;;7.24;60.14;98614.38;4982787;28;19926;-62
2023/10/16 00:13:35;;;;;;;;;;;;;;;7.27;59.98;98620.06;4978242;28;20425;-62
2023/10/16 00:16:03;;;;;;;;;;;;;;;7.30;59.86;98618.72;4971505;28;20569;-62
2023/10/16 00:18:33;;;;;;;;;;;;;;;7.33;60.05;98616.25;4976251;28;20336;-62
2023/10/16 00:21:04;;;;;;;;;;;;;;;7.39;59.81;98621.66;4972630;28;20403;-62
2023/10/16 00:23:38;;;;;;;;;;;;;;;7.41;59.62;98620.31;4973802;28;20338;-62
2023/10/16 00:26:07;;;;;;;;;;;;;;;7.33;59.62;98618.97;4970404;28;20300;-62
2023/10/16 00:28:35;;;;;;;;;;;;;;;7.27;59.35;98620.06;4950393;28;19934;-62
2023/10/16 00:31:03;;;;;;;;;;;;;;;7.16;59.89;98613.03;4971442;28;19926;-62
2023/10/16 00:33:33;;;;;;;;;;;;;;;7.09;59.87;98607.13;4954897;28;20492;-61
2023/10/16 00:36:01;;;;;;;;;;;;;;;6.96;60.14;98607.63;4975853;28;20398;-62
2023/10/16 00:38:36;;;;;;;;;;;;;;;6.81;60.71;98609.25;4971282;28;19938;-61
2023/10/16 00:41:15;;;;;;;;;;;;;;;6.83;60.82;98607.09;4973180;28;19940;-61
2023/10/16 00:43:45;;;;;;;;;;;;;;;6.87;60.40;98606.56;4951971;28;19933;-62
2023/10/16 00:46:15;;;;;;;;;;;;;;;6.86;60.29;98591.44;4971587;28;19933;-61
2023/10/16 00:48:42;;;;;;;;;;;;;;;6.80;60.07;98593.31;4972660;28;19929;-62
2023/10/16 00:51:10;;;;;;;;;;;;;;;6.76;60.13;98606.53;4951847;28;19926;-62
2023/10/16 00:53:38;;;;;;;;;;;;;;;6.74;60.82;98616.00;4972847;28;19930;-62
2023/10/16 00:56:08;;;;;;;;;;;;;;;6.65;60.68;98620.31;4973099;28;19984;-62
2023/10/16 00:58:35;;;;;;;;;;;;;;;6.67;60.19;98610.88;4977275;28;20272;-63
2023/10/16 01:01:08;;;;;;;;;;;;;;;6.68;60.17;98617.09;4969043;28;19958;-62
2023/10/16 01:03:40;;;;;;;;;;;;;;;6.67;59.66;98613.59;4976208;28;19925;-62
2023/10/16 01:06:15;;;;;;;;;;;;;;;6.61;59.30;98611.16;4971406;28;19926;-62
2023/10/16 01:08:44;;;;;;;;;;;;;;;6.57;59.17;98605.47;4968547;28;19931;-62
2023/10/16 01:11:14;;;;;;;;;;;;;;;6.33;59.49;98604.31;4970521;28;19922;-61
2023/10/16 01:13:42;;;;;;;;;;;;;;;6.25;59.65;98609.19;4974564;28;20376;-61
2023/10/16 01:16:11;;;;;;;;;;;;;;;6.23;59.66;98611.34;4954286;28;19930;-62
2023/10/16 01:18:39;;;;;;;;;;;;;;;6.18;59.66;98605.94;4969600;28;19922;-61
2023/10/16 01:21:08;;;;;;;;;;;;;;;6.22;59.88;98604.31;4949740;28;19922;-62
2023/10/16 01:23:37;;;;;;;;;;;;;;;6.32;59.04;98602.72;4972021;28;19926;-62
2023/10/16 01:26:05;;;;;;;;;;;;;;;6.28;59.18;98603.25;4974974;28;19922;-62
2023/10/16 01:28:33;;;;;;;;;;;;;;;6.32;58.85;98602.72;4958011;28;19993;-61
2023/10/16 01:31:01;;;;;;;;;;;;;;;6.39;58.69;98598.69;4970939;28;19948;-62
2023/10/16 01:33:30;;;;;;;;;;;;;;;6.45;58.36;98594.94;4969151;28;20357;-62
2023/10/16 01:35:58;;;;;;;;;;;;;;;6.34;58.95;98592.44;4971030;28;19932;-62
2023/10/16 01:38:27;;;;;;;;;;;;;;;6.28;59.09;98592.47;4971124;28;19922;-62
2023/10/16 01:41:04;;;;;;;;;;;;;;;6.26;59.42;98597.31;4975216;28;19928;-61
2023/10/16 01:43:32;;;;;;;;;;;;;;;6.36;58.86;98588.44;4977265;28;20595;-61
2023/10/16 01:46:01;;;;;;;;;;;;;;;6.40;58.71;98586.00;4964947;28;19933;-62
2023/10/16 01:48:29;;;;;;;;;;;;;;;6.36;58.50;98583.03;4952656;28;19922;-62
2023/10/16 01:50:57;;;;;;;;;;;;;;;6.30;58.77;98579.50;4949823;28;20442;-62
2023/10/16 01:53:28;;;;;;;;;;;;;;;6.29;58.71;98577.91;4967822;28;20617;-62
2023/10/16 01:55:57;;;;;;;;;;;;;;;6.33;58.92;98572.75;4957746;28;19922;-62
2023/10/16 01:58:26;;;;;;;;;;;;;;;6.29;58.81;98572.50;4950002;28;19934;-62
2023/10/16 02:00:58;;;;;;;;;;;;;;;6.25;59.36;98574.09;4972181;28;19938;-62
2023/10/16 02:03:27;;;;;;;;;;;;;;;6.15;59.59;98568.69;4973009;28;19929;-62
2023/10/16 02:05:56;;;;;;;;;;;;;;;6.07;59.86;98568.38;4963739;28;19926;-61
2023/10/16 02:08:25;;;;;;;;;;;;;;;6.10;59.65;98563.28;4954851;28;20294;-61
2023/10/16 02:10:52;;;;;;;;;;;;;;;6.10;60.12;98560.56;4971018;28;19922;-62
2023/10/16 02:13:22;;;;;;;;;;;;;;;6.10;60.28;98567.84;4971916;28;20147;-61
2023/10/16 02:15:49;;;;;;;;;;;;;;;6.04;59.95;98569.72;4951883;28;19976;-61
2023/10/16 02:18:22;;;;;;;;;;;;;;;6.03;60.30;98571.63;4943255;28;19942;-61
2023/10/16 02:20:51;;;;;;;;;;;;;;;6.00;59.98;98577.53;4948647;28;19948;-62
2023/10/16 02:23:20;;;;;;;;;;;;;;;6.09;59.88;98567.06;4951410;28;19926;-62
2023/10/16 02:25:48;;;;;;;;;;;;;;;6.18;59.74;98565.47;4965151;28;20295;-63
2023/10/16 02:28:19;;;;;;;;;;;;;;;6.08;59.84;98570.81;4967118;28;19922;-61
2023/10/16 02:30:50;;;;;;;;;;;;;;;6.04;60.05;98567.84;4970925;28;19934;-61
2023/10/16 02:33:23;;;;;;;;;;;;;;;6.03;60.04;98573.50;4970703;28;20296;-62
2023/10/16 02:35:53;;;;;;;;;;;;;;;6.06;59.86;98569.47;4969390;28;19922;-62
2023/10/16 02:38:28;;;;;;;;;;;;;;;6.08;59.98;98565.44;4953167;28;19926;-61
2023/10/16 02:41:00;;;;;;;;;;;;;;;6.09;59.85;98564.34;4973854;28;20287;-62
2023/10/16 02:43:29;;;;;;;;;;;;;;;6.12;59.86;98566.50;4963198;28;19926;-62
2023/10/16 02:46:01;;;;;;;;;;;;;;;6.03;59.62;98568.13;4975919;28;19925;-61
2023/10/16 02:48:29;;;;;;;;;;;;;;;6.08;59.48;98562.75;4973668;28;20402;-62
2023/10/16 02:50:57;;;;;;;;;;;;;;;5.97;59.52;98564.59;4971114;28;19926;-62
2023/10/16 02:53:26;;;;;;;;;;;;;;;6.04;59.54;98564.34;4972381;28;19995;-62
2023/10/16 02:55:57;;;;;;;;;;;;;;;6.02;59.79;98574.59;4957286;28;19926;-62
2023/10/16 02:58:26;;;;;;;;;;;;;;;5.95;60.37;98577.50;4972200;28;19922;-62
2023/10/16 03:00:55;;;;;;;;;;;;;;;5.93;60.02;98570.78;4975648;28;19922;-62
2023/10/16 03:03:28;;;;;;;;;;;;;;;5.87;60.48;98574.50;4974888;28;20451;-62
2023/10/16 03:05:56;;;;;;;;;;;;;;;5.78;60.20;98575.00;4973318;28;19929;-62
2023/10/16 03:08:30;;;;;;;;;;;;;;;5.76;60.03;98574.47;4973239;28;19922;-61
2023/10/16 03:10:58;;;;;;;;;;;;;;;5.75;59.93;98583.63;4973542;28;19992;-62
2023/10/16 03:13:26;;;;;;;;;;;;;;;5.74;60.03;98579.28;4978282;28;19992;-63
2023/10/16 03:16:04;;;;;;;;;;;;;;;5.78;60.06;98579.59;4973317;28;19922;-62
2023/10/16 03:18:34;;;;;;;;;;;;;;;5.72;60.06;98577.94;4974062;28;19992;-62
2023/10/16 03:21:09;;;;;;;;;;;;;;;5.73;59.85;98571.47;4964569;28;19934;-61
2023/10/16 03:23:42;;;;;;;;;;;;;;;5.65;59.98;98575.50;4954121;28;19928;-62
2023/10/16 03:26:11;;;;;;;;;;;;;;;5.73;60.37;98585.75;4973813;28;20279;-61
2023/10/16 03:28:38;;;;;;;;;;;;;;;5.67;60.29;98584.13;4970912;28;19922;-61
2023/10/16 03:31:07;;;;;;;;;;;;;;;5.82;59.66;98574.50;4974356;28;20360;-61
2023/10/16 03:33:36;;;;;;;;;;;;;;;5.77;60.03;98572.56;4972112;28;19947;-62
2023/10/16 03:36:04;;;;;;;;;;;;;;;5.69;59.68;98571.19;4972855;28;19928;-62
2023/10/16 03:38:36;;;;;;;;;;;;;;;5.67;60.10;98573.34;4969871;28;19923;-62
2023/10/16 03:41:11;;;;;;;;;;;;;;;5.61;60.46;98573.59;4971379;28;19926;-62
2023/10/16 03:43:42;;;;;;;;;;;;;;;5.59;60.38;98565.75;4973018;28;19971;-61
2023/10/16 03:46:10;;;;;;;;;;;;;;;5.67;60.35;98562.56;4972628;28;19922;-61
2023/10/16 03:48:39;;;;;;;;;;;;;;;5.57;60.67;98565.22;4972411;28;19922;-61
2023/10/16 03:51:07;;;;;;;;;;;;;;;5.40;60.70;98560.00;4971258;28;19930;-62
2023/10/16 03:53:35;;;;;;;;;;;;;;;5.46;60.43;98563.53;4973078;28;19929;-62
2023/10/16 03:56:04;;;;;;;;;;;;;;;5.44;60.54;98552.22;4963166;28;19937;-67
2023/10/16 03:58:34;;;;;;;;;;;;;;;5.52;60.47;98557.09;4954453;28;19922;-67
2023/10/16 04:01:08;;;;;;;;;;;;;;;5.40;60.44;98553.81;4971705;28;19929;-62
2023/10/16 04:03:47;;;;;;;;;;;;;;;5.43;60.81;98548.72;4974106;28;19941;-62
2023/10/16 04:06:19;;;;;;;;;;;;;;;5.44;60.89;98544.13;4973344;28;20382;-62
2023/10/16 04:08:47;;;;;;;;;;;;;;;5.45;60.74;98548.44;4976146;28;19926;-67
2023/10/16 04:11:15;;;;;;;;;;;;;;;5.46;60.96;98542.78;4969696;28;19929;-61
2023/10/16 04:13:47;;;;;;;;;;;;;;;5.45;60.83;98545.75;4975579;28;19934;-62
2023/10/16 04:16:30;;;;;;;;;;;;;;;5.40;60.97;98543.03;4972079;28;19977;-62
2023/10/16 04:19:28;;;;;;;;;;;;;;;5.36;60.63;98547.31;4970199;28;19922;-62
2023/10/16 04:21:50;;;;;;;;;;;;;;;5.38;60.31;98537.91;4967768;28;19923;-63
2023/10/16 04:24:31;;;;;;;;;;;;;;;5.27;60.65;98541.59;4978294;28;19969;-61
2023/10/16 04:29:49;;;;;;;;;;;;;;;5.35;60.08;98551.09;4971159;28;19929;-62
2023/10/16 04:32:27;;;;;;;;;;;;;;;5.21;59.66;98548.03;4965000;28;19937;-61
2023/10/16 04:34:57;;;;;;;;;;;;;;;5.21;59.72;98554.22;4952778;28;20341;-62
2023/10/16 04:37:29;;;;;;;;;;;;;;;5.15;59.72;98562.53;4968894;28;19922;-62
2023/10/16 04:45:39;;;;;;;;;;;;;;;5.20;59.46;98554.50;4970665;28;20415;-62
2023/10/16 04:48:07;;;;;;;;;;;;;;;5.16;59.53;98553.38;4973011;28;20360;-62
2023/10/16 04:50:40;;;;;;;;;;;;;;;5.25;59.23;98551.84;4978258;28;19929;-61
2023/10/16 04:53:11;;;;;;;;;;;;;;;5.26;59.20;98548.88;4981545;28;20256;-61
2023/10/16 04:56:04;;;;;;;;;;;;;;;5.28;59.62;98550.53;4978027;28;19922;-61
2023/10/16 05:01:55;;;;;;;;;;;;;;;5.38;59.32;98542.47;4968959;28;19957;-61
2023/10/16 05:04:49;;;;;;;;;;;;;;;5.29;59.15;98539.47;4970814;28;19922;-62
2023/10/16 05:07:34;;;;;;;;;;;;;;;5.26;59.59;98543.47;4963918;28;19976;-62
2023/10/16 05:15:51;;;;;;;;;;;;;;;5.54;59.06;98538.78;4957031;28;19957;-61
2023/10/16 05:18:42;;;;;;;;;;;;;;;5.56;58.46;98528.56;4972911;28;19929;-62
2023/10/16 06:16:35;;;;;;;;;;;;;;;5.21;58.35;98564.19;4970786;28;21140;-62
2023/10/16 06:19:07;;;;;;;;;;;;;;;5.15;58.55;98568.75;4975305;28;19922;-62
2023/10/16 06:21:35;;;;;;;;;;;;;;;5.20;58.44;98565.28;4971564;28;20001;-62
2023/10/16 06:24:17;;;;;;;;;;;;;;;5.22;58.43;98569.34;4968136;28;19926;-62
2023/10/16 06:26:47;;;;;;;;;;;;;;;5.28;58.34;98567.50;4967660;28;19926;-62
2023/10/16 06:29:14;;;;;;;;;;;;;;;5.34;58.08;98571.03;4973107;28;19933;-62
2023/10/16 06:31:50;;;;;;;;;;;;;;;5.35;58.21;98573.44;4973832;28;19929;-62
2023/10/16 06:34:18;;;;;;;;;;;;;;;5.25;58.11;98576.09;4975231;28;20634;-62
2023/10/16 06:36:46;;;;;;;;;;;;;;;5.37;58.22;98586.66;4974693;28;19922;-62
2023/10/16 06:39:27;;;;;;;;;;;;;;;5.24;58.34;98577.97;4974953;28;19929;-62
2023/10/16 06:41:56;;;;;;;;;;;;;;;5.35;58.43;98580.72;4972452;28;20391;-62
2023/10/16 06:44:29;;;;;;;;;;;;;;;5.42;58.40;98589.38;4972302;28;19929;-62
2023/10/16 06:46:59;;;;;;;;;;;;;;;5.51;58.30;98582.44;4973280;28;19922;-62
2023/10/16 06:49:35;;;;;;;;;;;;;;;5.60;58.38;98580.88;4964645;28;20375;-62
2023/10/16 06:52:04;;;;;;;;;;;;;;;5.62;58.75;98578.72;4974890;28;21060;-62
2023/10/16 06:54:32;;;;;;;;;;;;;;;5.66;58.34;98579.00;4974541;28;21446;-62
2023/10/16 06:57:10;;;;;;;;;;;;;;;5.68;58.57;98574.16;4956723;28;20415;-62
2023/10/16 06:59:39;;;;;;;;;;;;;;;5.65;59.42;98580.09;4973122;28;20442;-62
2023/10/16 07:02:15;;;;;;;;;;;;;;;5.72;59.18;98583.34;4974752;28;19926;-62
2023/10/16 07:04:45;;;;;;;;;;;;;;;5.69;59.43;98575.75;4969689;28;19949;-62
2023/10/16 07:07:15;;;;;;;;;;;;;;;5.63;59.33;98574.13;4971062;28;20383;-64
2023/10/16 07:09:47;;;;;;;;;;;;;;;5.60;59.26;98572.78;4967010;28;20443;-62
2023/10/16 07:12:17;;;;;;;;;;;;;;;5.66;59.21;98582.50;4966097;28;19922;-62
2023/10/16 07:14:55;;;;;;;;;;;;;;;5.68;59.45;98580.34;4971120;28;19952;-62
2023/10/16 07:17:25;;;;;;;;;;;;;;;5.48;60.31;98580.25;4970627;28;19929;-62
2023/10/16 07:19:58;;;;;;;;;;;;;;;5.40;60.80;98586.94;4974078;28;20368;-62
2023/10/16 07:22:31;;;;;;;;;;;;;;;5.38;61.02;98582.88;4971928;28;19926;-62
2023/10/16 07:25:08;;;;;;;;;;;;;;;5.45;61.09;98580.78;4971514;28;19929;-62
2023/10/16 07:27:36;;;;;;;;;;;;;;;5.52;60.92;98573.25;4973432;28;19929;-62
2023/10/16 07:30:21;;;;;;;;;;;;;;;5.58;61.17;98580.28;4972073;28;19926;-63
2023/10/16 07:32:54;;;;;;;;;;;;;;;5.73;61.16;98580.38;4973090;28;19930;-62
2023/10/16 07:35:22;;;;;;;;;;;;;;;5.86;60.73;98579.09;4967130;28;19969;-62
2023/10/16 07:37:53;;;;;;;;;;;;;;;5.86;61.17;98578.25;4974863;28;19941;-62
2023/10/16 07:40:21;;;;;;;;;;;;;;;5.94;60.84;98578.59;4980571;28;19926;-62
2023/10/16 07:42:52;;;;;;;;;;;;;;;5.96;60.97;98578.31;4973742;28;19922;-62
2023/10/16 07:45:20;;;;;;;;;;;;;;;5.94;61.55;98583.19;4973832;28;19926;-62
2023/10/16 07:47:48;;;;;;;;;;;;;;;5.98;61.12;98581.59;4973616;28;20444;-62
2023/10/16 07:50:19;;;;;;;;;;;;;;;6.06;61.55;98575.66;4973354;28;19922;-62
2023/10/16 07:52:46;;;;;;;;;;;;;;;6.22;60.88;98571.91;4967246;28;20399;-62
2023/10/16 07:55:19;;;;;;;;;;;;;;;6.36;60.70;98571.44;4953353;28;19923;-62
2023/10/16 07:57:47;;;;;;;;;;;;;;;6.47;60.09;98570.34;4972504;28;19926;-62
2023/10/16 08:00:16;;;;;;;;;;;;;;;6.53;60.58;98574.69;4973172;28;19926;-62
2023/10/16 08:02:45;;;;;;;;;;;;;;;6.54;60.36;98571.69;4970622;28;19922;-62
2023/10/16 08:05:16;;;;;;;;;;;;;;;6.57;60.46;98571.19;4973037;28;20360;-61
2023/10/16 08:07:48;;;;;;;;;;;;;;;6.64;60.57;98564.69;4972943;28;20400;-62
2023/10/16 08:10:41;;;;;;;;;;;;;;;6.79;60.50;98579.00;4970166;28;19977;-62
2023/10/16 08:13:12;;;;;;;;;;;;;;;6.74;60.03;98567.41;4972844;28;19922;-63
2023/10/16 08:15:44;;;;;;;;;;;;;;;6.88;60.08;98573.91;4973035;28;19930;-61
2023/10/16 08:18:12;;;;;;;;;;;;;;;6.99;60.02;98572.00;4972721;28;19928;-62
2023/10/16 08:21:05;;;;;;;;;;;;;;;7.03;59.66;98570.34;4948037;28;19944;-62
2023/10/16 08:23:38;;;;;;;;;;;;;;;7.02;60.21;98574.94;4970253;28;19922;-61
2023/10/16 08:26:14;;;;;;;;;;;;;;;7.15;60.38;98570.91;4973270;28;19922;-61
2023/10/16 08:28:45;;;;;;;;;;;;;;;7.16;60.19;98571.69;4970379;28;20395;-61
2023/10/16 08:31:23;;;;;;;;;;;;;;;7.06;60.99;98569.81;4973078;28;19922;-61
2023/10/16 08:33:51;;;;;;;;;;;;;;;7.11;61.07;98569.81;4972187;28;19926;-61
2023/10/16 08:36:20;;;;;;;;;;;;;;;7.29;60.64;98568.41;4969371;28;19922;-61
2023/10/16 08:38:55;;;;;;;;;;;;;;;7.33;60.25;98567.59;4972235;28;19922;-62
2023/10/16 08:41:42;;;;;;;;;;;;;;;7.46;59.86;98565.44;4974073;28;19926;-67
2023/10/16 08:44:14;;;;;;;;;;;;;;;7.58;59.92;98564.03;4964179;28;19922;-61
2023/10/16 08:46:52;;;;;;;;;;;;;;;7.55;60.50;98555.66;4962488;28;19922;-61
2023/10/16 08:49:22;;;;;;;;;;;;;;;7.60;60.32;98550.22;4979051;28;19929;-62
2023/10/16 08:51:52;;;;;;;;;;;;;;;7.65;59.61;98554.81;4985172;28;19930;-62
2023/10/16 08:54:53;;;;;;;;;;;;;;;7.73;59.88;98559.66;4979717;28;19922;-62
2023/10/16 08:57:22;;;;;;;;;;;;;;;7.88;59.93;98556.84;4965025;28;19966;-62
2023/10/16 08:59:50;;;;;;;;;;;;;;;7.98;59.59;98558.72;4967234;28;19929;-61
2023/10/16 09:02:18;;;;;;;;;;;;;;;8.00;59.54;98567.38;4970498;28;19926;-62
2023/10/16 09:04:48;;;;;;;;;;;;;;;8.12;59.98;98565.94;4973860;28;19926;-62
2023/10/16 09:07:18;;;;;;;;;;;;;;;8.25;59.79;98571.81;4969148;28;19964;-62
2023/10/16 09:09:48;;;;;;;;;;;;;;;8.24;59.72;98573.72;4970670;28;19972;-61
2023/10/16 09:12:24;;;;;;;;;;;;;;;8.24;59.48;98568.31;4969928;28;20351;-61
2023/10/16 09:14:52;;;;;;;;;;;;;;;8.34;59.42;98570.16;4955435;28;19933;-61
2023/10/16 09:17:20;;;;;;;;;;;;;;;8.35;60.07;98575.28;4977009;28;19922;-61
2023/10/16 09:19:48;;;;;;;;;;;;;;;8.38;59.56;98566.63;4972156;28;19932;-62
2023/10/16 09:22:31;;;;;;;;;;;;;;;8.46;59.15;98580.66;4962706;28;19922;-62
2023/10/16 09:25:00;;;;;;;;;;;;;;;8.47;59.24;98577.69;4975746;28;19926;-61
2023/10/16 09:27:31;;;;;;;;;;;;;;;8.52;59.09;98572.25;4975028;28;20331;-62
2023/10/16 09:30:00;;;;;;;;;;;;;;;8.63;58.92;98564.84;4974734;28;19985;-61
2023/10/16 09:32:35;;;;;;;;;;;;;;;8.60;58.90;98568.94;4974143;28;20000;-62
2023/10/16 09:35:06;;;;;;;;;;;;;;;8.52;58.89;98566.00;4974152;28;20057;-62
2023/10/16 09:37:35;;;;;;;;;;;;;;;8.47;59.06;98568.75;4972196;28;20375;-61
2023/10/16 09:40:18;;;;;;;;;;;;;;;8.51;58.76;98567.91;4974708;28;19953;-62
2023/10/16 09:43:05;;;;;;;;;;;;;;;8.58;58.15;98564.91;4973310;28;19929;-61
2023/10/16 09:45:33;;;;;;;;;;;;;;;8.75;58.01;98567.19;4972070;28;19949;-61
2023/10/16 09:48:07;;;;;;;;;;;;;;;8.88;57.70;98567.34;4973662;28;19922;-62
2023/10/16 09:50:36;;;;;;;;;;;;;;;8.93;56.86;98567.31;4973925;28;20276;-62
2023/10/16 09:53:05;;;;;;;;;;;;;;;8.97;56.04;98567.56;4977137;28;19922;-62
2023/10/16 09:55:38;;;;;;;;;;;;;;;9.03;55.99;98554.75;4979146;28;20376;-62
2023/10/16 09:58:07;;;;;;;;;;;;;;;9.00;55.34;98566.16;4977552;28;19929;-61
2023/10/16 10:00:37;;;;;;;;;;;;;;;9.03;55.45;98552.06;4975370;28;19998;-62
2023/10/16 10:03:06;;;;;;;;;;;;;;;9.02;55.84;98558.56;4971926;28;19923;-61
2023/10/16 10:05:41;;;;;;;;;;;;;;;8.97;56.27;98561.31;4977414;28;19928;-62
2023/10/16 10:08:15;;;;;;;;;;;;;;;8.91;55.39;98555.94;4975545;28;19929;-61
2023/10/16 10:11:17;;;;;;;;;;;;;;;8.90;55.57;98553.53;4981724;28;19929;-62
2023/10/16 10:14:09;;;;;;;;;;;;;;;8.91;55.01;98555.16;4974154;28;19922;-62
2023/10/16 10:16:37;;;;;;;;;;;;;;;8.95;54.97;98555.34;4975461;28;20268;-63
2023/10/16 10:19:10;;;;;;;;;;;;;;;8.99;54.92;98556.41;4975260;28;19929;-62
2023/10/16 10:21:45;;;;;;;;;;;;;;;9.11;54.81;98554.97;4972247;28;19934;-62
2023/10/16 10:24:15;;;;;;;;;;;;;;;9.29;55.26;98555.31;4980885;28;19933;-62
2023/10/16 10:26:49;;;;;;;;;;;;;;;9.33;54.48;98548.25;4977933;28;19922;-62
2023/10/16 10:29:20;;;;;;;;;;;;;;;9.40;54.48;98546.78;4980545;28;20374;-62
2023/10/16 10:31:48;;;;;;;;;;;;;;;9.50;54.54;98550.50;4981410;28;20356;-62
2023/10/16 10:34:23;;;;;;;;;;;;;;;9.47;53.58;98540.22;4974988;28;19926;-62
2023/10/16 10:36:51;;;;;;;;;;;;;;;9.34;53.40;98531.69;4974836;28;19922;-62
2023/10/16 10:39:38;;;;;;;;;;;;;;;9.31;53.20;98536.84;4987564;28;19932;-62
2023/10/16 10:42:10;;;;;;;;;;;;;;;9.32;52.52;98533.88;4976817;28;19969;-62
2023/10/16 10:44:44;;;;;;;;;;;;;;;9.39;51.83;98528.91;4978364;28;19933;-62
2023/10/16 10:47:18;;;;;;;;;;;;;;;9.43;52.80;98529.94;4981282;28;19977;-62
2023/10/16 10:49:46;;;;;;;;;;;;;;;9.50;52.93;98523.38;4974894;28;19922;-62
2023/10/16 10:52:15;;;;;;;;;;;;;;;9.55;52.34;98518.69;4977437;28;19969;-62
2023/10/16 10:54:43;;;;;;;;;;;;;;;9.59;51.93;98521.66;4981550;28;19976;-62
2023/10/16 10:57:17;;;;;;;;;;;;;;;9.61;51.61;98519.44;4985287;28;19957;-62
2023/10/16 10:59:47;;;;;;;;;;;;;;;9.71;51.82;98513.88;4982823;28;19925;-62
2023/10/16 11:02:35;;;;;;;;;;;;;;;9.81;51.78;98513.75;4991615;28;20387;-61
2023/10/16 11:05:22;;;;;;;;;;;;;;;9.92;51.17;98511.72;4972400;28;19984;-62
2023/10/16 11:08:17;;;;;;;;;;;;;;;9.96;49.41;98505.41;4978842;28;19941;-62
2023/10/16 11:10:47;;;;;;;;;;;;;;;10.07;49.76;98505.28;4977230;28;20418;-62
2023/10/16 11:13:18;;;;;;;;;;;;;;;10.11;48.90;98495.44;4981619;28;19928;-62
2023/10/16 11:15:45;;;;;;;;;;;;;;;10.11;48.91;98490.00;4980230;28;20410;-62
2023/10/16 11:18:18;;;;;;;;;;;;;;;10.08;48.66;98490.59;4982067;28;19921;-62
2023/10/16 11:20:46;;;;;;;;;;;;;;;10.11;47.98;98482.66;4954244;28;19926;-62
2023/10/16 11:23:14;;;;;;;;;;;;;;;10.10;48.09;98481.03;4981236;28;19922;-62
2023/10/16 11:25:44;;;;;;;;;;;;;;;10.08;47.61;98485.97;4975218;28;20287;-62
2023/10/16 11:28:17;;;;;;;;;;;;;;;10.02;47.22;98487.16;4974376;28;19922;-62
2023/10/16 11:30:46;;;;;;;;;;;;;;;10.09;47.35;98473.19;4977261;28;19926;-63
2023/10/16 11:33:14;;;;;;;;;;;;;;;10.16;47.09;98470.91;4982086;28;19922;-62
2023/10/16 11:35:47;;;;;;;;;;;;;;;10.30;47.30;98465.59;4976915;28;19926;-63
2023/10/16 11:38:19;;;;;;;;;;;;;;;10.31;46.06;98467.19;4972785;28;19973;-62
2023/10/16 11:40:51;;;;;;;;;;;;;;;10.39;45.76;98464.63;4972555;28;19957;-62
2023/10/16 11:43:19;;;;;;;;;;;;;;;10.41;45.86;98458.88;4976624;28;19923;-62
2023/10/16 11:45:53;;;;;;;;;;;;;;;10.39;46.59;98459.19;4984492;28;20386;-64
2023/10/16 11:48:42;;;;;;;;;;;;;;;10.42;46.83;98453.16;4982303;28;19926;-62
2023/10/16 11:51:15;;;;;;;;;;;;;;;10.44;46.31;98445.53;4963570;28;19922;-62
2023/10/16 11:53:43;;;;;;;;;;;;;;;10.36;46.83;98437.25;4962307;28;19922;-62
2023/10/16 11:56:13;;;;;;;;;;;;;;;10.41;47.06;98435.25;4969329;28;20376;-62
2023/10/16 11:58:40;;;;;;;;;;;;;;;10.40;48.68;98436.34;4976269;28;19926;-62
2023/10/16 12:01:10;;;;;;;;;;;;;;;10.39;48.75;98434.75;4976618;28;20002;-62
2023/10/16 12:03:40;;;;;;;;;;;;;;;10.40;49.63;98439.06;4977632;28;19922;-62
2023/10/16 12:06:09;;;;;;;;;;;;;;;10.46;49.68;98435.16;4976130;28;20335;-62
2023/10/16 12:08:40;;;;;;;;;;;;;;;10.52;49.21;98424.22;4974622;28;20012;-62
2023/10/16 12:11:08;;;;;;;;;;;;;;;10.57;49.17;98424.13;4973493;28;19938;-62
2023/10/16 12:13:37;;;;;;;;;;;;;;;10.65;49.62;98424.25;4975872;28;20319;-66
2023/10/16 12:16:07;;;;;;;;;;;;;;;10.75;49.20;98417.81;4955933;28;19926;-62
2023/10/16 12:18:42;;;;;;;;;;;;;;;10.85;49.55;98409.47;4972571;28;19922;-62
2023/10/16 12:21:12;;;;;;;;;;;;;;;10.94;48.57;98399.50;4967151;28;20426;-63
2023/10/16 12:23:42;;;;;;;;;;;;;;;10.94;48.14;98399.50;4973925;28;19930;-62
2023/10/16 12:26:11;;;;;;;;;;;;;;;10.91;47.95;98394.66;4979013;28;19926;-62
2023/10/16 12:28:39;;;;;;;;;;;;;;;10.91;47.62;98391.94;4973754;28;19922;-62
2023/10/16 12:31:08;;;;;;;;;;;;;;;10.95;49.03;98390.25;4957260;28;20372;-62
2023/10/16 12:33:37;;;;;;;;;;;;;;;10.95;48.02;98389.44;4975295;28;19922;-62
2023/10/16 12:36:08;;;;;;;;;;;;;;;10.84;47.19;98379.88;4975728;28;19961;-62
2023/10/16 12:38:35;;;;;;;;;;;;;;;10.80;47.71;98382.38;4974395;28;19932;-62
2023/10/16 12:41:05;;;;;;;;;;;;;;;10.81;47.83;98375.03;4973983;28;19925;-63
2023/10/16 12:43:33;;;;;;;;;;;;;;;10.89;47.72;98374.34;4972842;28;19922;-63
2023/10/16 12:46:01;;;;;;;;;;;;;;;10.89;46.91;98369.72;4970715;28;19971;-62
2023/10/16 12:48:29;;;;;;;;;;;;;;;10.82;47.37;98361.16;4973033;28;19929;-62
2023/10/16 12:50:59;;;;;;;;;;;;;;;10.83;47.48;98362.75;4972214;28;20276;-62
2023/10/16 12:53:49;;;;;;;;;;;;;;;10.81;47.39;98359.53;4969426;28;19922;-62
2023/10/16 12:56:20;;;;;;;;;;;;;;;10.76;47.22;98365.09;4968895;28;20751;-62
2023/10/16 12:58:48;;;;;;;;;;;;;;;10.67;47.18;98366.88;4974349;28;19926;-62
2023/10/16 13:01:16;;;;;;;;;;;;;;;10.73;47.10;98362.97;4975006;28;19922;-62
2023/10/16 13:03:45;;;;;;;;;;;;;;;10.79;46.55;98359.03;4978038;28;20335;-62
2023/10/16 13:06:14;;;;;;;;;;;;;;;10.86;46.55;98359.44;4974109;28;20533;-62
2023/10/16 13:08:42;;;;;;;;;;;;;;;10.90;46.21;98349.56;4971997;28;19972;-62
2023/10/16 13:11:16;;;;;;;;;;;;;;;10.90;46.71;98348.75;4958380;28;19938;-62
2023/10/16 13:13:45;;;;;;;;;;;;;;;10.85;47.03;98346.94;4981643;28;19980;-62
2023/10/16 13:16:13;;;;;;;;;;;;;;;10.80;47.45;98344.34;4974898;28;19949;-62
2023/10/16 13:18:43;;;;;;;;;;;;;;;10.79;47.39;98342.72;4978092;28;19932;-62
2023/10/16 13:21:13;;;;;;;;;;;;;;;10.68;47.62;98342.13;4967491;28;20371;-62
2023/10/16 13:23:40;;;;;;;;;;;;;;;10.79;47.73;98341.91;4983072;28;19976;-62
2023/10/16 13:26:15;;;;;;;;;;;;;;;10.82;47.27;98344.84;4972583;28;19926;-63
2023/10/16 13:28:46;;;;;;;;;;;;;;;10.87;47.33;98343.94;4970646;28;19922;-62
2023/10/16 13:31:13;;;;;;;;;;;;;;;10.99;47.40;98347.75;4968231;28;20372;-62
2023/10/16 13:33:42;;;;;;;;;;;;;;;11.02;47.26;98347.16;4966250;28;19922;-62
2023/10/16 13:36:13;;;;;;;;;;;;;;;11.11;47.17;98339.09;4952521;28;20465;-62
2023/10/16 13:38:41;;;;;;;;;;;;;;;11.14;46.09;98337.69;4969554;28;19922;-62
2023/10/16 13:41:18;;;;;;;;;;;;;;;11.13;45.33;98336.88;4969712;28;19926;-62
2023/10/16 13:43:49;;;;;;;;;;;;;;;11.14;45.68;98337.69;4968182;28;20648;-62
2023/10/16 13:46:16;;;;;;;;;;;;;;;11.13;45.10;98336.06;4968622;28;19992;-62
2023/10/16 13:48:47;;;;;;;;;;;;;;;11.14;45.48;98337.69;4968777;28;19945;-62
2023/10/16 13:51:16;;;;;;;;;;;;;;;11.12;44.72;98329.81;4966692;28;19933;-63
2023/10/16 13:53:46;;;;;;;;;;;;;;;11.08;44.71;98328.00;4971350;28;20394;-63
2023/10/16 13:56:16;;;;;;;;;;;;;;;11.08;45.07;98323.41;4965368;28;20292;-62
2023/10/16 13:58:45;;;;;;;;;;;;;;;11.16;45.82;98332.72;4965621;28;19958;-63
2023/10/16 14:01:15;;;;;;;;;;;;;;;11.16;44.88;98324.56;4963010;28;19930;-63
2023/10/16 14:03:44;;;;;;;;;;;;;;;11.20;44.79;98323.66;4969248;28;19922;-62
2023/10/16 14:06:22;;;;;;;;;;;;;;;11.23;44.25;98324.97;4969824;28;19927;-62
2023/10/16 14:08:50;;;;;;;;;;;;;;;11.22;43.73;98326.06;4970635;28;19929;-62
2023/10/16 14:11:28;;;;;;;;;;;;;;;11.23;43.61;98322.25;4970684;28;19929;-62
2023/10/16 14:13:57;;;;;;;;;;;;;;;11.30;43.91;98325.38;4970891;28;19925;-63
2023/10/16 14:16:32;;;;;;;;;;;;;;;11.34;43.48;98320.09;4964659;28;19968;-62
2023/10/16 14:19:06;;;;;;;;;;;;;;;11.39;43.48;98315.34;4971632;28;19934;-62
2023/10/16 14:21:33;;;;;;;;;;;;;;;11.40;43.48;98310.72;4968305;28;19926;-62
2023/10/16 14:24:02;;;;;;;;;;;;;;;11.43;43.08;98318.28;4966834;28;19922;-63
2023/10/16 14:26:29;;;;;;;;;;;;;;;11.44;43.23;98314.44;4961506;28;20372;-62
2023/10/16 14:28:59;;;;;;;;;;;;;;;11.46;43.40;98310.31;4970462;28;19926;-62
2023/10/16 14:31:29;;;;;;;;;;;;;;;11.50;43.53;98314.03;4970111;28;19926;-62